UAL46 LOWW-KORD
Flight info
| Callsign | UAL46 |
|---|---|
| Flight time | N/A |
| Altitude | 34000 |
| Route | MEDIX DCT LAMSI DCT MAMOR DCT PETIX DCT TUSUK DCT ADKUV DCT NIK/N0490F360 L610 KOPUL Q63 ICTAM T421 DIDZA DCT CESQA DCT BIBPE DCT OKTAD DCT MEDOG DCT PEMOB DCT BAKUR DCT NEBIN/M085F370 DCT 54N020W 54N030W 5330N04000W 52N050W DCT TUDEP/N0486F380 N530A MIILS DCT LETAK Q824 TAGUM DCT ECK DCT FNT WYNDE3 |
| Aircraft | B789/H-SDE1E2E3FGHIJ2J3J4J5M1RWXY/LB1D1 |
Departure
| Time | 2026-04-21 21:10 |
|---|---|
| Airport | Vienna International Airport (LOWW) |
Arrival
| Time | N/A |
|---|---|
| Airport | Chicago O'Hare International Airport (KORD) |
| Time | Latitude | Longitude | Altitude | Speed | Heading |
|---|---|---|---|---|---|
| 2026-04-21 20:52 | 48.11762 | 16.56119 | 627 ft | 0 kts | 26° |
| 2026-04-21 21:01 | 48.11761 | 16.56119 | 614 ft | 1 kts | 26° |
| 2026-04-21 21:01 | 48.11741 | 16.56103 | 628 ft | 4 kts | 36° |
| 2026-04-21 21:02 | 48.11721 | 16.56076 | 629 ft | 4 kts | 53° |
| 2026-04-21 21:02 | 48.11709 | 16.56042 | 629 ft | 4 kts | 85° |
| 2026-04-21 21:02 | 48.11711 | 16.56016 | 629 ft | 0 kts | 116° |
| 2026-04-21 21:05 | 48.11706 | 16.56030 | 629 ft | 3 kts | 116° |
| 2026-04-21 21:05 | 48.11693 | 16.56072 | 629 ft | 6 kts | 116° |
| 2026-04-21 21:05 | 48.11671 | 16.56139 | 629 ft | 9 kts | 116° |
| 2026-04-21 21:06 | 48.11640 | 16.56235 | 620 ft | 11 kts | 116° |
| 2026-04-21 21:06 | 48.11602 | 16.56354 | 626 ft | 14 kts | 116° |
| 2026-04-21 21:06 | 48.11555 | 16.56497 | 626 ft | 16 kts | 116° |
| 2026-04-21 21:06 | 48.11501 | 16.56660 | 621 ft | 19 kts | 116° |
| 2026-04-21 21:07 | 48.11440 | 16.56846 | 629 ft | 21 kts | 116° |
| 2026-04-21 21:07 | 48.11375 | 16.57045 | 627 ft | 20 kts | 115° |
| 2026-04-21 21:07 | 48.11312 | 16.57246 | 621 ft | 23 kts | 115° |
| 2026-04-21 21:07 | 48.11239 | 16.57465 | 629 ft | 24 kts | 117° |
| 2026-04-21 21:08 | 48.11138 | 16.57626 | 617 ft | 16 kts | 188° |
| 2026-04-21 21:08 | 48.11064 | 16.57540 | 622 ft | 14 kts | 224° |
| 2026-04-21 21:08 | 48.10984 | 16.57456 | 625 ft | 13 kts | 217° |
| 2026-04-21 21:08 | 48.10974 | 16.57353 | 622 ft | 9 kts | 290° |
| 2026-04-21 21:09 | 48.10977 | 16.57342 | 621 ft | 0 kts | 294° |
| 2026-04-21 21:09 | 48.11001 | 16.57264 | 626 ft | 31 kts | 296° |
| 2026-04-21 21:10 | 48.11194 | 16.56675 | 626 ft | 94 kts | 296° |
| 2026-04-21 21:10 | 48.11562 | 16.55549 | 626 ft | 148 kts | 296° |
| 2026-04-21 21:10 | 48.12071 | 16.54002 | 789 ft | 172 kts | 301° |
| 2026-04-21 21:10 | 48.12510 | 16.52406 | 1544 ft | 164 kts | 288° |
| 2026-04-21 21:11 | 48.12530 | 16.50667 | 1940 ft | 171 kts | 264° |
| 2026-04-21 21:11 | 48.12252 | 16.48923 | 2147 ft | 177 kts | 260° |
| 2026-04-21 21:11 | 48.11946 | 16.47068 | 2219 ft | 192 kts | 260° |
| 2026-04-21 21:11 | 48.11593 | 16.45060 | 2322 ft | 214 kts | 259° |
| 2026-04-21 21:12 | 48.11194 | 16.42751 | 2465 ft | 236 kts | 259° |
| 2026-04-21 21:12 | 48.10772 | 16.40260 | 2751 ft | 253 kts | 259° |
| 2026-04-21 21:12 | 48.10347 | 16.37736 | 3593 ft | 249 kts | 259° |
| 2026-04-21 21:12 | 48.09998 | 16.35163 | 4268 ft | 254 kts | 263° |
| 2026-04-21 21:13 | 48.09823 | 16.32562 | 4993 ft | 255 kts | 272° |
| 2026-04-21 21:13 | 48.09875 | 16.29933 | 5701 ft | 256 kts | 277° |
| 2026-04-21 21:13 | 48.09978 | 16.27271 | 6436 ft | 257 kts | 275° |
| 2026-04-21 21:13 | 48.10032 | 16.24564 | 7127 ft | 260 kts | 274° |
| 2026-04-21 21:14 | 48.10065 | 16.21859 | 7803 ft | 261 kts | 275° |
| 2026-04-21 21:14 | 48.10431 | 16.19243 | 8410 ft | 257 kts | 297° |
| 2026-04-21 21:14 | 48.11077 | 16.16829 | 9053 ft | 259 kts | 292° |
| 2026-04-21 21:14 | 48.11662 | 16.14264 | 9698 ft | 261 kts | 292° |
| 2026-04-21 21:15 | 48.12276 | 16.11693 | 10285 ft | 264 kts | 293° |
| 2026-04-21 21:15 | 48.12950 | 16.09005 | 10266 ft | 295 kts | 293° |
| 2026-04-21 21:15 | 48.13699 | 16.05987 | 10270 ft | 324 kts | 292° |
| 2026-04-21 21:15 | 48.14463 | 16.02841 | 10886 ft | 328 kts | 292° |
| 2026-04-21 21:16 | 48.15265 | 15.99532 | 11592 ft | 333 kts | 292° |
| 2026-04-21 21:16 | 48.16067 | 15.96260 | 12255 ft | 336 kts | 292° |
| 2026-04-21 21:16 | 48.16866 | 15.92995 | 12868 ft | 340 kts | 292° |
| 2026-04-21 21:16 | 48.17671 | 15.89686 | 13495 ft | 343 kts | 291° |
| 2026-04-21 21:17 | 48.18501 | 15.86264 | 14134 ft | 347 kts | 291° |
| 2026-04-21 21:17 | 48.19330 | 15.82850 | 14701 ft | 350 kts | 291° |
| 2026-04-21 21:17 | 48.20160 | 15.79426 | 15274 ft | 352 kts | 291° |
| 2026-04-21 21:17 | 48.20995 | 15.75978 | 15845 ft | 354 kts | 291° |
| 2026-04-21 21:18 | 48.21842 | 15.72471 | 16406 ft | 357 kts | 291° |
| 2026-04-21 21:18 | 48.22688 | 15.68964 | 16963 ft | 359 kts | 291° |
| 2026-04-21 21:18 | 48.23535 | 15.65448 | 17403 ft | 365 kts | 291° |
| 2026-04-21 21:18 | 48.24409 | 15.61812 | 17946 ft | 367 kts | 291° |
| 2026-04-21 21:19 | 48.25276 | 15.58199 | 18452 ft | 370 kts | 291° |
| 2026-04-21 21:19 | 48.26151 | 15.54549 | 18924 ft | 372 kts | 291° |
| 2026-04-21 21:19 | 48.27026 | 15.50891 | 19385 ft | 373 kts | 291° |
| 2026-04-21 21:19 | 48.27608 | 15.48454 | 19678 ft | 375 kts | 291° |
| 2026-04-21 21:20 | 48.28489 | 15.44762 | 20125 ft | 377 kts | 291° |
| 2026-04-21 21:20 | 48.29371 | 15.41046 | 20568 ft | 378 kts | 289° |
| 2026-04-21 21:20 | 48.30094 | 15.37322 | 20926 ft | 381 kts | 288° |
| 2026-04-21 21:20 | 48.30906 | 15.33532 | 21364 ft | 382 kts | 289° |
| 2026-04-21 21:21 | 48.31731 | 15.29711 | 21757 ft | 384 kts | 288° |
| 2026-04-21 21:21 | 48.32510 | 15.25862 | 22168 ft | 386 kts | 288° |
| 2026-04-21 21:21 | 48.33275 | 15.22028 | 22545 ft | 388 kts | 288° |
| 2026-04-21 21:21 | 48.34068 | 15.18142 | 22922 ft | 389 kts | 288° |
| 2026-04-21 21:22 | 48.34872 | 15.14239 | 23302 ft | 391 kts | 288° |
| 2026-04-21 21:22 | 48.35671 | 15.10314 | 23677 ft | 393 kts | 288° |
| 2026-04-21 21:22 | 48.36465 | 15.06375 | 23978 ft | 395 kts | 288° |
| 2026-04-21 21:22 | 48.37268 | 15.02400 | 24276 ft | 397 kts | 288° |
| 2026-04-21 21:23 | 48.38069 | 14.98443 | 24557 ft | 398 kts | 288° |
| 2026-04-21 21:23 | 48.38867 | 14.94488 | 24832 ft | 400 kts | 288° |
| 2026-04-21 21:23 | 48.39648 | 14.90602 | 25106 ft | 402 kts | 288° |
| 2026-04-21 21:23 | 48.40370 | 14.87007 | 25342 ft | 403 kts | 288° |
| 2026-04-21 21:24 | 48.41181 | 14.82959 | 25618 ft | 405 kts | 288° |
| 2026-04-21 21:24 | 48.41995 | 14.78892 | 25880 ft | 407 kts | 288° |
| 2026-04-21 21:24 | 48.42818 | 14.74768 | 26026 ft | 412 kts | 288° |
| 2026-04-21 21:24 | 48.43642 | 14.70628 | 26319 ft | 413 kts | 288° |
| 2026-04-21 21:25 | 48.44439 | 14.66615 | 26582 ft | 414 kts | 288° |
| 2026-04-21 21:25 | 48.45293 | 14.62311 | 26858 ft | 416 kts | 288° |
| 2026-04-21 21:25 | 48.46097 | 14.58250 | 27113 ft | 418 kts | 288° |
| 2026-04-21 21:25 | 48.46924 | 14.54061 | 27389 ft | 419 kts | 288° |
| 2026-04-21 21:26 | 48.47784 | 14.49696 | 27662 ft | 421 kts | 288° |
| 2026-04-21 21:26 | 48.48610 | 14.45491 | 27914 ft | 423 kts | 288° |
| 2026-04-21 21:26 | 48.49448 | 14.41220 | 28171 ft | 424 kts | 288° |
| 2026-04-21 21:26 | 48.50273 | 14.37002 | 28431 ft | 426 kts | 288° |
| 2026-04-21 21:27 | 48.51113 | 14.32701 | 28686 ft | 427 kts | 288° |
| 2026-04-21 21:27 | 48.51925 | 14.28532 | 28936 ft | 429 kts | 288° |
| 2026-04-21 21:27 | 48.52785 | 14.24110 | 29214 ft | 430 kts | 288° |
| 2026-04-21 21:27 | 48.53606 | 14.19879 | 29442 ft | 432 kts | 288° |
| 2026-04-21 21:28 | 48.54471 | 14.15407 | 29704 ft | 434 kts | 288° |
| 2026-04-21 21:28 | 48.55318 | 14.11024 | 29950 ft | 435 kts | 288° |
| 2026-04-21 21:28 | 48.56997 | 14.02298 | 30406 ft | 438 kts | 288° |
| 2026-04-21 21:29 | 48.57851 | 13.97841 | 30580 ft | 440 kts | 288° |
| 2026-04-21 21:29 | 48.58696 | 13.93428 | 30762 ft | 442 kts | 288° |
| 2026-04-21 21:29 | 48.59549 | 13.88955 | 30952 ft | 444 kts | 288° |
| 2026-04-21 21:29 | 48.60405 | 13.84462 | 31159 ft | 445 kts | 288° |
| 2026-04-21 21:30 | 48.61243 | 13.80048 | 31335 ft | 447 kts | 288° |
| 2026-04-21 21:30 | 48.62117 | 13.75437 | 31536 ft | 448 kts | 287° |
| 2026-04-21 21:30 | 48.62977 | 13.70884 | 31733 ft | 450 kts | 287° |
| 2026-04-21 21:30 | 48.63836 | 13.66331 | 31915 ft | 452 kts | 287° |
| 2026-04-21 21:31 | 48.64698 | 13.61750 | 32114 ft | 453 kts | 287° |
| 2026-04-21 21:31 | 48.65560 | 13.57156 | 32276 ft | 455 kts | 287° |
| 2026-04-21 21:31 | 48.66391 | 13.52524 | 32503 ft | 456 kts | 286° |
| 2026-04-21 21:31 | 48.67190 | 13.47860 | 32670 ft | 458 kts | 286° |
| 2026-04-21 21:32 | 48.67988 | 13.43276 | 32858 ft | 459 kts | 287° |
| 2026-04-21 21:32 | 48.68821 | 13.38602 | 33023 ft | 461 kts | 287° |
| 2026-04-21 21:32 | 48.69653 | 13.33899 | 33198 ft | 463 kts | 286° |
| 2026-04-21 21:32 | 48.70465 | 13.29226 | 33348 ft | 464 kts | 286° |
| 2026-04-21 21:33 | 48.71262 | 13.24626 | 33523 ft | 466 kts | 286° |
| 2026-04-21 21:33 | 48.71996 | 13.20414 | 33670 ft | 467 kts | 286° |
| 2026-04-21 21:33 | 48.72827 | 13.15648 | 33819 ft | 468 kts | 286° |
| 2026-04-21 21:33 | 48.73604 | 13.11158 | 33956 ft | 470 kts | 286° |
| 2026-04-21 21:34 | 48.74474 | 13.06101 | 34123 ft | 472 kts | 286° |
| 2026-04-21 21:34 | 48.75304 | 13.01278 | 34240 ft | 474 kts | 286° |
| 2026-04-21 21:34 | 48.76138 | 12.96428 | 34228 ft | 477 kts | 286° |
| 2026-04-21 21:35 | 48.77795 | 12.86725 | 34225 ft | 473 kts | 286° |
| 2026-04-21 21:35 | 48.79435 | 12.77075 | 34221 ft | 472 kts | 286° |
| 2026-04-21 21:36 | 48.81067 | 12.67420 | 34224 ft | 471 kts | 286° |
| 2026-04-21 21:36 | 48.82600 | 12.58301 | 34216 ft | 473 kts | 285° |
| 2026-04-21 21:37 | 48.84231 | 12.48543 | 34219 ft | 475 kts | 285° |